sensor_id;sensor_type;location;lat;lon;timestamp;P1;durP1;ratioP1;P2;durP2;ratioP2
29484;SDS011;16440;59.494;17.978;2022-08-19T00:01:59;59.58;;;22.13;;
29484;SDS011;16440;59.494;17.978;2022-08-19T00:04:50;57.55;;;21.12;;
29484;SDS011;16440;59.494;17.978;2022-08-19T00:07:28;73.90;;;23.83;;
29484;SDS011;16440;59.494;17.978;2022-08-19T00:10:02;59.67;;;21.67;;
29484;SDS011;16440;59.494;17.978;2022-08-19T00:12:33;64.45;;;22.87;;
29484;SDS011;16440;59.494;17.978;2022-08-19T00:15:10;62.30;;;22.92;;
29484;SDS011;16440;59.494;17.978;2022-08-19T00:17:48;63.60;;;21.95;;
29484;SDS011;16440;59.494;17.978;2022-08-19T00:20:23;68.40;;;22.90;;
29484;SDS011;16440;59.494;17.978;2022-08-19T00:23:06;69.93;;;24.45;;
29484;SDS011;16440;59.494;17.978;2022-08-19T00:30:59;64.12;;;24.55;;
29484;SDS011;16440;59.494;17.978;2022-08-19T00:33:46;75.85;;;24.67;;
29484;SDS011;16440;59.494;17.978;2022-08-19T00:36:24;75.40;;;25.67;;
29484;SDS011;16440;59.494;17.978;2022-08-19T00:38:59;75.60;;;25.87;;
29484;SDS011;16440;59.494;17.978;2022-08-19T00:41:35;70.68;;;25.95;;
29484;SDS011;16440;59.494;17.978;2022-08-19T00:44:04;86.35;;;27.42;;
29484;SDS011;16440;59.494;17.978;2022-08-19T00:46:58;85.12;;;27.92;;
29484;SDS011;16440;59.494;17.978;2022-08-19T00:49:40;84.85;;;26.83;;
29484;SDS011;16440;59.494;17.978;2022-08-19T00:52:21;83.78;;;27.85;;
29484;SDS011;16440;59.494;17.978;2022-08-19T00:54:54;81.03;;;28.20;;
29484;SDS011;16440;59.494;17.978;2022-08-19T00:57:27;86.15;;;29.10;;
29484;SDS011;16440;59.494;17.978;2022-08-19T01:00:12;85.18;;;29.70;;
29484;SDS011;16440;59.494;17.978;2022-08-19T01:02:59;85.32;;;28.75;;
29484;SDS011;16440;59.494;17.978;2022-08-19T01:05:30;86.78;;;31.80;;
29484;SDS011;16440;59.494;17.978;2022-08-19T01:08:03;85.75;;;30.67;;
29484;SDS011;16440;59.494;17.978;2022-08-19T01:10:40;89.65;;;31.45;;
29484;SDS011;16440;59.494;17.978;2022-08-19T01:13:22;87.45;;;30.92;;
29484;SDS011;16440;59.494;17.978;2022-08-19T01:15:57;88.53;;;32.67;;
29484;SDS011;16440;59.494;17.978;2022-08-19T01:21:16;89.50;;;32.88;;
29484;SDS011;16440;59.494;17.978;2022-08-19T01:23:56;92.70;;;33.72;;
29484;SDS011;16440;59.494;17.978;2022-08-19T01:26:37;91.72;;;33.47;;
29484;SDS011;16440;59.494;17.978;2022-08-19T01:29:11;90.05;;;34.92;;
29484;SDS011;16440;59.494;17.978;2022-08-19T01:31:46;88.90;;;32.78;;
29484;SDS011;16440;59.494;17.978;2022-08-19T01:34:22;92.53;;;34.83;;
29484;SDS011;16440;59.494;17.978;2022-08-19T01:36:59;79.03;;;32.70;;
29484;SDS011;16440;59.494;17.978;2022-08-19T01:39:39;79.70;;;31.45;;
29484;SDS011;16440;59.494;17.978;2022-08-19T01:42:14;74.53;;;31.52;;
29484;SDS011;16440;59.494;17.978;2022-08-19T01:44:50;77.43;;;30.85;;
29484;SDS011;16440;59.494;17.978;2022-08-19T01:47:22;76.37;;;31.60;;
29484;SDS011;16440;59.494;17.978;2022-08-19T01:49:54;78.87;;;31.25;;
29484;SDS011;16440;59.494;17.978;2022-08-19T01:52:32;78.97;;;31.33;;
29484;SDS011;16440;59.494;17.978;2022-08-19T01:55:06;66.68;;;30.05;;
29484;SDS011;16440;59.494;17.978;2022-08-19T01:57:44;67.28;;;31.05;;
29484;SDS011;16440;59.494;17.978;2022-08-19T02:00:21;71.95;;;31.17;;
29484;SDS011;16440;59.494;17.978;2022-08-19T02:05:18;76.62;;;31.65;;
29484;SDS011;16440;59.494;17.978;2022-08-19T02:07:48;70.78;;;31.12;;
29484;SDS011;16440;59.494;17.978;2022-08-19T02:10:23;72.32;;;30.15;;
29484;SDS011;16440;59.494;17.978;2022-08-19T02:13:00;66.15;;;28.95;;
29484;SDS011;16440;59.494;17.978;2022-08-19T02:18:12;61.53;;;30.33;;
29484;SDS011;16440;59.494;17.978;2022-08-19T02:20:50;63.93;;;29.40;;
29484;SDS011;16440;59.494;17.978;2022-08-19T02:23:40;64.50;;;29.40;;
29484;SDS011;16440;59.494;17.978;2022-08-19T02:26:14;59.17;;;29.05;;
29484;SDS011;16440;59.494;17.978;2022-08-19T02:28:54;62.75;;;29.37;;
29484;SDS011;16440;59.494;17.978;2022-08-19T02:31:25;68.72;;;28.55;;
29484;SDS011;16440;59.494;17.978;2022-08-19T02:33:54;62.50;;;29.10;;
29484;SDS011;16440;59.494;17.978;2022-08-19T02:36:25;58.05;;;30.02;;
29484;SDS011;16440;59.494;17.978;2022-08-19T02:38:59;64.70;;;29.80;;
29484;SDS011;16440;59.494;17.978;2022-08-19T02:41:32;61.28;;;29.55;;
29484;SDS011;16440;59.494;17.978;2022-08-19T02:43:59;57.60;;;28.98;;
29484;SDS011;16440;59.494;17.978;2022-08-19T02:46:30;62.33;;;27.80;;
29484;SDS011;16440;59.494;17.978;2022-08-19T02:49:00;54.95;;;28.15;;
29484;SDS011;16440;59.494;17.978;2022-08-19T02:51:32;66.35;;;29.85;;
29484;SDS011;16440;59.494;17.978;2022-08-19T02:54:00;55.63;;;27.92;;
29484;SDS011;16440;59.494;17.978;2022-08-19T02:56:34;62.55;;;28.75;;
29484;SDS011;16440;59.494;17.978;2022-08-19T02:59:09;64.57;;;28.35;;
29484;SDS011;16440;59.494;17.978;2022-08-19T03:01:40;53.50;;;27.48;;
29484;SDS011;16440;59.494;17.978;2022-08-19T03:04:09;64.78;;;28.10;;
29484;SDS011;16440;59.494;17.978;2022-08-19T03:06:42;61.35;;;27.23;;
29484;SDS011;16440;59.494;17.978;2022-08-19T03:09:15;61.80;;;28.40;;
29484;SDS011;16440;59.494;17.978;2022-08-19T03:11:50;61.25;;;28.00;;
29484;SDS011;16440;59.494;17.978;2022-08-19T03:14:20;57.05;;;27.23;;
29484;SDS011;16440;59.494;17.978;2022-08-19T03:16:51;59.55;;;27.25;;
29484;SDS011;16440;59.494;17.978;2022-08-19T03:19:20;62.03;;;29.00;;
29484;SDS011;16440;59.494;17.978;2022-08-19T03:22:01;59.40;;;27.10;;
29484;SDS011;16440;59.494;17.978;2022-08-19T03:24:30;50.33;;;24.92;;
29484;SDS011;16440;59.494;17.978;2022-08-19T03:27:00;58.53;;;26.15;;
29484;SDS011;16440;59.494;17.978;2022-08-19T03:29:30;63.13;;;27.98;;
29484;SDS011;16440;59.494;17.978;2022-08-19T03:32:03;60.45;;;27.23;;
29484;SDS011;16440;59.494;17.978;2022-08-19T03:34:37;58.97;;;26.62;;
29484;SDS011;16440;59.494;17.978;2022-08-19T03:37:09;53.33;;;25.98;;
29484;SDS011;16440;59.494;17.978;2022-08-19T03:39:52;57.13;;;27.85;;
29484;SDS011;16440;59.494;17.978;2022-08-19T03:42:25;49.50;;;25.52;;
29484;SDS011;16440;59.494;17.978;2022-08-19T03:44:53;53.75;;;25.75;;
29484;SDS011;16440;59.494;17.978;2022-08-19T03:47:25;51.63;;;26.08;;
29484;SDS011;16440;59.494;17.978;2022-08-19T03:49:59;53.00;;;25.80;;
29484;SDS011;16440;59.494;17.978;2022-08-19T03:52:27;50.22;;;24.73;;
29484;SDS011;16440;59.494;17.978;2022-08-19T03:55:02;50.25;;;24.60;;
29484;SDS011;16440;59.494;17.978;2022-08-19T04:00:04;47.67;;;24.25;;
29484;SDS011;16440;59.494;17.978;2022-08-19T04:02:33;53.08;;;25.77;;
29484;SDS011;16440;59.494;17.978;2022-08-19T04:04:59;54.58;;;26.42;;
29484;SDS011;16440;59.494;17.978;2022-08-19T04:07:31;50.70;;;25.30;;
29484;SDS011;16440;59.494;17.978;2022-08-19T04:09:59;56.22;;;25.80;;
29484;SDS011;16440;59.494;17.978;2022-08-19T04:12:37;52.83;;;25.83;;
29484;SDS011;16440;59.494;17.978;2022-08-19T04:15:10;46.92;;;25.00;;
29484;SDS011;16440;59.494;17.978;2022-08-19T04:20:05;48.45;;;25.58;;
29484;SDS011;16440;59.494;17.978;2022-08-19T04:22:35;56.55;;;27.02;;
29484;SDS011;16440;59.494;17.978;2022-08-19T04:25:13;44.50;;;25.05;;
29484;SDS011;16440;59.494;17.978;2022-08-19T04:27:43;46.17;;;24.80;;
29484;SDS011;16440;59.494;17.978;2022-08-19T04:30:14;51.45;;;25.90;;
29484;SDS011;16440;59.494;17.978;2022-08-19T04:32:47;46.50;;;23.80;;
29484;SDS011;16440;59.494;17.978;2022-08-19T04:35:18;48.60;;;23.80;;
29484;SDS011;16440;59.494;17.978;2022-08-19T04:37:46;44.38;;;22.10;;
29484;SDS011;16440;59.494;17.978;2022-08-19T04:40:21;42.00;;;21.30;;
29484;SDS011;16440;59.494;17.978;2022-08-19T04:43:00;44.90;;;23.77;;
29484;SDS011;16440;59.494;17.978;2022-08-19T04:45:28;42.33;;;22.40;;
29484;SDS011;16440;59.494;17.978;2022-08-19T04:47:57;51.50;;;23.12;;
29484;SDS011;16440;59.494;17.978;2022-08-19T04:50:29;48.33;;;23.00;;
29484;SDS011;16440;59.494;17.978;2022-08-19T05:07:09;44.25;;;21.40;;
29484;SDS011;16440;59.494;17.978;2022-08-19T05:10:31;50.55;;;23.17;;
29484;SDS011;16440;59.494;17.978;2022-08-19T05:16:05;46.40;;;22.65;;
29484;SDS011;16440;59.494;17.978;2022-08-19T05:18:54;39.40;;;21.42;;
29484;SDS011;16440;59.494;17.978;2022-08-19T05:21:49;45.40;;;22.13;;
29484;SDS011;16440;59.494;17.978;2022-08-19T05:24:43;40.88;;;22.80;;
29484;SDS011;16440;59.494;17.978;2022-08-19T05:27:30;35.75;;;21.45;;
29484;SDS011;16440;59.494;17.978;2022-08-19T05:30:10;41.35;;;22.40;;
29484;SDS011;16440;59.494;17.978;2022-08-19T05:32:54;37.95;;;20.85;;
29484;SDS011;16440;59.494;17.978;2022-08-19T05:35:42;36.58;;;19.90;;
29484;SDS011;16440;59.494;17.978;2022-08-19T05:38:18;34.38;;;20.05;;
29484;SDS011;16440;59.494;17.978;2022-08-19T05:57:29;37.45;;;20.45;;
29484;SDS011;16440;59.494;17.978;2022-08-19T06:06:00;38.85;;;19.55;;
29484;SDS011;16440;59.494;17.978;2022-08-19T09:21:04;10.82;;;6.25;;
29484;SDS011;16440;59.494;17.978;2022-08-19T09:23:46;14.43;;;6.80;;
29484;SDS011;16440;59.494;17.978;2022-08-19T09:37:26;9.32;;;6.00;;
29484;SDS011;16440;59.494;17.978;2022-08-19T09:40:01;13.60;;;6.30;;
29484;SDS011;16440;59.494;17.978;2022-08-19T09:45:00;11.27;;;6.28;;
29484;SDS011;16440;59.494;17.978;2022-08-19T09:53:01;12.50;;;6.05;;
29484;SDS011;16440;59.494;17.978;2022-08-19T09:58:03;10.57;;;5.82;;
29484;SDS011;16440;59.494;17.978;2022-08-19T10:00:52;13.23;;;5.65;;
29484;SDS011;16440;59.494;17.978;2022-08-19T10:03:20;8.18;;;5.82;;
29484;SDS011;16440;59.494;17.978;2022-08-19T10:05:50;18.87;;;5.20;;
29484;SDS011;16440;59.494;17.978;2022-08-19T10:08:22;10.23;;;5.50;;
29484;SDS011;16440;59.494;17.978;2022-08-19T10:10:54;10.85;;;5.60;;
29484;SDS011;16440;59.494;17.978;2022-08-19T10:13:27;10.70;;;5.43;;
29484;SDS011;16440;59.494;17.978;2022-08-19T10:16:02;12.63;;;5.82;;
29484;SDS011;16440;59.494;17.978;2022-08-19T10:18:37;13.98;;;5.53;;
29484;SDS011;16440;59.494;17.978;2022-08-19T10:21:08;12.48;;;5.62;;
29484;SDS011;16440;59.494;17.978;2022-08-19T10:23:41;8.57;;;5.22;;
29484;SDS011;16440;59.494;17.978;2022-08-19T10:26:11;16.98;;;5.80;;
29484;SDS011;16440;59.494;17.978;2022-08-19T10:28:43;21.02;;;5.57;;
29484;SDS011;16440;59.494;17.978;2022-08-19T10:31:18;12.57;;;5.47;;
29484;SDS011;16440;59.494;17.978;2022-08-19T10:33:51;11.75;;;5.82;;
29484;SDS011;16440;59.494;17.978;2022-08-19T10:36:36;9.75;;;5.40;;
29484;SDS011;16440;59.494;17.978;2022-08-19T10:39:20;10.23;;;4.93;;
29484;SDS011;16440;59.494;17.978;2022-08-19T10:41:54;14.77;;;5.53;;
29484;SDS011;16440;59.494;17.978;2022-08-19T10:44:27;13.32;;;5.78;;
29484;SDS011;16440;59.494;17.978;2022-08-19T10:46:59;12.15;;;5.40;;
29484;SDS011;16440;59.494;17.978;2022-08-19T10:49:28;6.68;;;4.85;;
29484;SDS011;16440;59.494;17.978;2022-08-19T10:52:01;11.77;;;5.30;;
29484;SDS011;16440;59.494;17.978;2022-08-19T10:54:48;8.63;;;5.57;;
29484;SDS011;16440;59.494;17.978;2022-08-19T11:00:11;11.90;;;5.20;;
29484;SDS011;16440;59.494;17.978;2022-08-19T11:02:44;11.00;;;5.57;;
29484;SDS011;16440;59.494;17.978;2022-08-19T11:05:12;9.82;;;5.10;;
29484;SDS011;16440;59.494;17.978;2022-08-19T11:07:42;10.45;;;5.43;;
29484;SDS011;16440;59.494;17.978;2022-08-19T11:10:12;9.88;;;5.28;;
29484;SDS011;16440;59.494;17.978;2022-08-19T11:12:48;11.10;;;5.32;;
29484;SDS011;16440;59.494;17.978;2022-08-19T11:15:20;12.43;;;5.90;;
29484;SDS011;16440;59.494;17.978;2022-08-19T11:17:52;14.55;;;6.07;;
29484;SDS011;16440;59.494;17.978;2022-08-19T11:20:32;9.20;;;5.90;;
29484;SDS011;16440;59.494;17.978;2022-08-19T11:22:59;12.02;;;5.37;;
29484;SDS011;16440;59.494;17.978;2022-08-19T11:25:30;12.37;;;5.28;;
29484;SDS011;16440;59.494;17.978;2022-08-19T11:28:00;14.32;;;6.12;;
29484;SDS011;16440;59.494;17.978;2022-08-19T11:30:30;13.70;;;5.47;;
29484;SDS011;16440;59.494;17.978;2022-08-19T11:32:58;11.73;;;5.45;;
29484;SDS011;16440;59.494;17.978;2022-08-19T11:35:27;7.28;;;5.28;;
29484;SDS011;16440;59.494;17.978;2022-08-19T11:37:59;11.65;;;5.60;;
29484;SDS011;16440;59.494;17.978;2022-08-19T11:40:28;12.35;;;5.62;;
29484;SDS011;16440;59.494;17.978;2022-08-19T11:43:00;9.23;;;5.80;;
29484;SDS011;16440;59.494;17.978;2022-08-19T11:45:29;14.77;;;5.40;;
29484;SDS011;16440;59.494;17.978;2022-08-19T11:47:59;10.80;;;5.75;;
29484;SDS011;16440;59.494;17.978;2022-08-19T11:50:33;8.73;;;5.40;;
29484;SDS011;16440;59.494;17.978;2022-08-19T11:53:08;13.60;;;6.75;;
29484;SDS011;16440;59.494;17.978;2022-08-19T11:55:39;13.02;;;5.82;;
29484;SDS011;16440;59.494;17.978;2022-08-19T11:58:12;10.15;;;5.87;;
29484;SDS011;16440;59.494;17.978;2022-08-19T12:00:42;7.93;;;5.70;;
29484;SDS011;16440;59.494;17.978;2022-08-19T12:03:14;11.02;;;5.43;;
29484;SDS011;16440;59.494;17.978;2022-08-19T12:05:44;13.00;;;5.30;;
29484;SDS011;16440;59.494;17.978;2022-08-19T12:08:20;12.35;;;5.30;;
29484;SDS011;16440;59.494;17.978;2022-08-19T12:10:48;11.50;;;5.50;;
29484;SDS011;16440;59.494;17.978;2022-08-19T12:13:30;9.57;;;4.95;;
29484;SDS011;16440;59.494;17.978;2022-08-19T12:18:43;8.93;;;5.40;;
29484;SDS011;16440;59.494;17.978;2022-08-19T12:21:37;13.18;;;5.05;;
29484;SDS011;16440;59.494;17.978;2022-08-19T12:24:06;9.70;;;5.22;;
29484;SDS011;16440;59.494;17.978;2022-08-19T12:29:28;11.85;;;5.05;;
29484;SDS011;16440;59.494;17.978;2022-08-19T12:32:02;8.93;;;5.37;;
29484;SDS011;16440;59.494;17.978;2022-08-19T12:37:18;10.10;;;5.30;;
29484;SDS011;16440;59.494;17.978;2022-08-19T12:39:50;13.35;;;5.18;;
29484;SDS011;16440;59.494;17.978;2022-08-19T12:42:19;12.55;;;5.00;;
29484;SDS011;16440;59.494;17.978;2022-08-19T12:44:49;9.38;;;5.43;;
29484;SDS011;16440;59.494;17.978;2022-08-19T12:47:20;11.10;;;5.12;;
29484;SDS011;16440;59.494;17.978;2022-08-19T12:49:59;10.77;;;5.75;;
29484;SDS011;16440;59.494;17.978;2022-08-19T12:52:33;12.75;;;4.90;;
29484;SDS011;16440;59.494;17.978;2022-08-19T12:55:08;10.52;;;4.97;;
29484;SDS011;16440;59.494;17.978;2022-08-19T13:00:20;10.25;;;5.35;;
29484;SDS011;16440;59.494;17.978;2022-08-19T13:02:51;9.63;;;5.43;;
29484;SDS011;16440;59.494;17.978;2022-08-19T13:05:31;10.57;;;5.12;;
29484;SDS011;16440;59.494;17.978;2022-08-19T13:08:05;10.32;;;5.60;;
29484;SDS011;16440;59.494;17.978;2022-08-19T13:10:46;7.32;;;5.32;;
29484;SDS011;16440;59.494;17.978;2022-08-19T13:13:14;13.93;;;5.57;;
29484;SDS011;16440;59.494;17.978;2022-08-19T13:15:43;12.50;;;5.35;;
29484;SDS011;16440;59.494;17.978;2022-08-19T13:18:14;10.65;;;5.32;;
29484;SDS011;16440;59.494;17.978;2022-08-19T13:20:48;12.45;;;5.37;;
29484;SDS011;16440;59.494;17.978;2022-08-19T13:23:19;14.75;;;5.85;;
29484;SDS011;16440;59.494;17.978;2022-08-19T13:25:57;14.68;;;5.07;;
29484;SDS011;16440;59.494;17.978;2022-08-19T13:30:51;12.65;;;5.25;;
29484;SDS011;16440;59.494;17.978;2022-08-19T13:33:41;16.30;;;5.53;;
29484;SDS011;16440;59.494;17.978;2022-08-19T13:36:13;6.78;;;4.87;;
29484;SDS011;16440;59.494;17.978;2022-08-19T13:38:42;10.98;;;5.43;;
29484;SDS011;16440;59.494;17.978;2022-08-19T13:41:15;9.70;;;5.25;;
29484;SDS011;16440;59.494;17.978;2022-08-19T13:43:54;12.53;;;4.87;;
29484;SDS011;16440;59.494;17.978;2022-08-19T13:46:25;10.02;;;5.10;;
29484;SDS011;16440;59.494;17.978;2022-08-19T13:48:56;13.02;;;5.12;;
29484;SDS011;16440;59.494;17.978;2022-08-19T13:51:26;11.00;;;5.62;;
29484;SDS011;16440;59.494;17.978;2022-08-19T13:54:05;11.32;;;5.80;;
29484;SDS011;16440;59.494;17.978;2022-08-19T13:56:41;11.43;;;5.80;;
29484;SDS011;16440;59.494;17.978;2022-08-19T13:59:13;11.10;;;5.85;;
29484;SDS011;16440;59.494;17.978;2022-08-19T14:01:44;11.18;;;6.10;;
29484;SDS011;16440;59.494;17.978;2022-08-19T14:04:15;10.27;;;6.00;;
29484;SDS011;16440;59.494;17.978;2022-08-19T14:06:52;9.48;;;5.60;;
29484;SDS011;16440;59.494;17.978;2022-08-19T14:09:24;12.13;;;6.15;;
29484;SDS011;16440;59.494;17.978;2022-08-19T14:11:52;11.30;;;6.10;;
29484;SDS011;16440;59.494;17.978;2022-08-19T14:14:25;13.70;;;5.80;;
29484;SDS011;16440;59.494;17.978;2022-08-19T14:16:55;11.07;;;5.47;;
29484;SDS011;16440;59.494;17.978;2022-08-19T14:19:26;12.63;;;5.40;;
29484;SDS011;16440;59.494;17.978;2022-08-19T14:21:57;11.55;;;5.65;;
29484;SDS011;16440;59.494;17.978;2022-08-19T14:24:26;13.30;;;6.35;;
29484;SDS011;16440;59.494;17.978;2022-08-19T14:26:59;8.65;;;5.60;;
29484;SDS011;16440;59.494;17.978;2022-08-19T14:29:44;9.05;;;5.37;;
29484;SDS011;16440;59.494;17.978;2022-08-19T14:32:21;10.20;;;5.80;;
29484;SDS011;16440;59.494;17.978;2022-08-19T14:34:53;9.93;;;5.80;;
29484;SDS011;16440;59.494;17.978;2022-08-19T14:40:14;8.85;;;5.65;;
29484;SDS011;16440;59.494;17.978;2022-08-19T14:42:48;8.10;;;5.18;;
29484;SDS011;16440;59.494;17.978;2022-08-19T14:45:19;8.65;;;5.68;;
29484;SDS011;16440;59.494;17.978;2022-08-19T14:48:22;9.25;;;5.43;;
29484;SDS011;16440;59.494;17.978;2022-08-19T14:50:51;9.00;;;5.85;;
29484;SDS011;16440;59.494;17.978;2022-08-19T14:53:27;15.20;;;5.85;;
29484;SDS011;16440;59.494;17.978;2022-08-19T14:55:59;11.07;;;5.50;;
29484;SDS011;16440;59.494;17.978;2022-08-19T14:58:36;11.35;;;5.35;;
29484;SDS011;16440;59.494;17.978;2022-08-19T15:01:05;12.43;;;6.07;;
29484;SDS011;16440;59.494;17.978;2022-08-19T15:03:51;10.85;;;5.22;;
29484;SDS011;16440;59.494;17.978;2022-08-19T15:06:23;9.77;;;5.78;;
29484;SDS011;16440;59.494;17.978;2022-08-19T15:09:03;11.75;;;6.10;;
29484;SDS011;16440;59.494;17.978;2022-08-19T15:11:32;9.68;;;5.60;;
29484;SDS011;16440;59.494;17.978;2022-08-19T15:14:01;10.25;;;5.65;;
29484;SDS011;16440;59.494;17.978;2022-08-19T15:16:32;14.10;;;5.95;;
29484;SDS011;16440;59.494;17.978;2022-08-19T15:18:59;11.27;;;5.50;;
29484;SDS011;16440;59.494;17.978;2022-08-19T15:21:37;14.85;;;5.93;;
29484;SDS011;16440;59.494;17.978;2022-08-19T15:24:19;9.68;;;5.35;;
29484;SDS011;16440;59.494;17.978;2022-08-19T15:26:55;16.83;;;6.07;;
29484;SDS011;16440;59.494;17.978;2022-08-19T15:29:24;10.25;;;5.55;;
29484;SDS011;16440;59.494;17.978;2022-08-19T15:31:55;9.97;;;5.70;;
29484;SDS011;16440;59.494;17.978;2022-08-19T15:34:26;8.85;;;5.05;;
29484;SDS011;16440;59.494;17.978;2022-08-19T15:36:56;11.30;;;5.60;;
29484;SDS011;16440;59.494;17.978;2022-08-19T15:39:29;11.55;;;6.05;;
29484;SDS011;16440;59.494;17.978;2022-08-19T15:42:01;10.63;;;4.72;;
29484;SDS011;16440;59.494;17.978;2022-08-19T15:44:33;8.75;;;5.20;;
29484;SDS011;16440;59.494;17.978;2022-08-19T15:47:01;10.75;;;4.85;;
29484;SDS011;16440;59.494;17.978;2022-08-19T15:49:30;8.73;;;5.00;;
29484;SDS011;16440;59.494;17.978;2022-08-19T15:51:58;14.65;;;5.12;;
29484;SDS011;16440;59.494;17.978;2022-08-19T15:57:00;9.57;;;4.97;;
29484;SDS011;16440;59.494;17.978;2022-08-19T15:59:47;8.27;;;5.20;;
29484;SDS011;16440;59.494;17.978;2022-08-19T16:02:34;12.50;;;5.40;;
29484;SDS011;16440;59.494;17.978;2022-08-19T16:05:24;11.25;;;5.70;;
29484;SDS011;16440;59.494;17.978;2022-08-19T16:07:59;9.10;;;5.57;;
29484;SDS011;16440;59.494;17.978;2022-08-19T16:10:47;15.68;;;5.87;;
29484;SDS011;16440;59.494;17.978;2022-08-19T16:13:15;15.45;;;6.12;;
29484;SDS011;16440;59.494;17.978;2022-08-19T16:15:44;13.32;;;6.12;;
29484;SDS011;16440;59.494;17.978;2022-08-19T16:18:13;11.70;;;5.37;;
29484;SDS011;16440;59.494;17.978;2022-08-19T16:20:43;10.52;;;6.07;;
29484;SDS011;16440;59.494;17.978;2022-08-19T16:23:17;10.32;;;5.85;;
29484;SDS011;16440;59.494;17.978;2022-08-19T16:25:48;15.50;;;6.93;;
29484;SDS011;16440;59.494;17.978;2022-08-19T16:28:30;22.40;;;9.30;;
29484;SDS011;16440;59.494;17.978;2022-08-19T16:30:59;20.95;;;9.40;;
29484;SDS011;16440;59.494;17.978;2022-08-19T16:33:29;23.65;;;10.93;;
29484;SDS011;16440;59.494;17.978;2022-08-19T16:35:57;26.67;;;11.80;;
29484;SDS011;16440;59.494;17.978;2022-08-19T16:38:33;23.33;;;10.50;;
29484;SDS011;16440;59.494;17.978;2022-08-19T16:41:07;23.23;;;9.88;;
29484;SDS011;16440;59.494;17.978;2022-08-19T16:43:35;21.08;;;10.25;;
29484;SDS011;16440;59.494;17.978;2022-08-19T16:46:04;16.33;;;9.40;;
29484;SDS011;16440;59.494;17.978;2022-08-19T16:48:34;18.85;;;9.45;;
29484;SDS011;16440;59.494;17.978;2022-08-19T16:51:00;19.25;;;8.93;;
29484;SDS011;16440;59.494;17.978;2022-08-19T16:53:34;17.00;;;8.45;;
29484;SDS011;16440;59.494;17.978;2022-08-19T16:56:08;19.45;;;9.07;;
29484;SDS011;16440;59.494;17.978;2022-08-19T16:58:38;19.00;;;9.20;;
29484;SDS011;16440;59.494;17.978;2022-08-19T17:01:11;16.52;;;8.38;;
29484;SDS011;16440;59.494;17.978;2022-08-19T17:03:43;22.83;;;8.52;;
29484;SDS011;16440;59.494;17.978;2022-08-19T17:06:18;19.35;;;8.38;;
29484;SDS011;16440;59.494;17.978;2022-08-19T17:08:54;15.85;;;8.43;;
29484;SDS011;16440;59.494;17.978;2022-08-19T17:11:26;13.00;;;7.80;;
29484;SDS011;16440;59.494;17.978;2022-08-19T17:13:59;16.57;;;8.33;;
29484;SDS011;16440;59.494;17.978;2022-08-19T17:16:32;15.98;;;7.97;;
29484;SDS011;16440;59.494;17.978;2022-08-19T17:19:04;16.15;;;8.10;;
29484;SDS011;16440;59.494;17.978;2022-08-19T17:21:38;19.33;;;8.20;;
29484;SDS011;16440;59.494;17.978;2022-08-19T17:24:08;14.27;;;8.63;;
29484;SDS011;16440;59.494;17.978;2022-08-19T17:26:39;18.37;;;8.05;;
29484;SDS011;16440;59.494;17.978;2022-08-19T17:29:14;14.50;;;8.57;;
29484;SDS011;16440;59.494;17.978;2022-08-19T17:31:48;16.98;;;8.27;;
29484;SDS011;16440;59.494;17.978;2022-08-19T17:34:21;18.65;;;8.43;;
29484;SDS011;16440;59.494;17.978;2022-08-19T17:36:53;19.05;;;8.70;;
29484;SDS011;16440;59.494;17.978;2022-08-19T17:39:29;17.42;;;8.30;;
29484;SDS011;16440;59.494;17.978;2022-08-19T17:41:57;26.83;;;9.35;;
29484;SDS011;16440;59.494;17.978;2022-08-19T17:47:09;19.95;;;9.82;;
29484;SDS011;16440;59.494;17.978;2022-08-19T17:49:52;20.90;;;10.27;;
29484;SDS011;16440;59.494;17.978;2022-08-19T17:52:22;21.45;;;10.20;;
29484;SDS011;16440;59.494;17.978;2022-08-19T17:54:51;23.20;;;10.60;;
29484;SDS011;16440;59.494;17.978;2022-08-19T17:57:21;21.80;;;10.88;;
29484;SDS011;16440;59.494;17.978;2022-08-19T17:59:50;19.80;;;10.68;;
29484;SDS011;16440;59.494;17.978;2022-08-19T18:02:25;19.67;;;10.65;;
29484;SDS011;16440;59.494;17.978;2022-08-19T18:05:12;19.05;;;10.10;;
29484;SDS011;16440;59.494;17.978;2022-08-19T18:07:59;22.02;;;10.75;;
29484;SDS011;16440;59.494;17.978;2022-08-19T18:10:32;17.65;;;10.10;;
29484;SDS011;16440;59.494;17.978;2022-08-19T18:13:03;18.15;;;9.73;;
29484;SDS011;16440;59.494;17.978;2022-08-19T18:15:35;19.08;;;9.98;;
29484;SDS011;16440;59.494;17.978;2022-08-19T18:18:06;23.83;;;10.13;;
29484;SDS011;16440;59.494;17.978;2022-08-19T18:20:35;23.80;;;10.45;;
29484;SDS011;16440;59.494;17.978;2022-08-19T18:23:03;22.23;;;10.80;;
29484;SDS011;16440;59.494;17.978;2022-08-19T18:25:36;15.98;;;9.77;;
29484;SDS011;16440;59.494;17.978;2022-08-19T18:28:08;19.48;;;10.60;;
29484;SDS011;16440;59.494;17.978;2022-08-19T18:30:36;29.05;;;11.85;;
29484;SDS011;16440;59.494;17.978;2022-08-19T18:33:10;19.30;;;11.10;;
29484;SDS011;16440;59.494;17.978;2022-08-19T18:35:46;19.17;;;10.57;;
29484;SDS011;16440;59.494;17.978;2022-08-19T18:38:20;19.00;;;10.45;;
29484;SDS011;16440;59.494;17.978;2022-08-19T18:40:59;20.12;;;10.80;;
29484;SDS011;16440;59.494;17.978;2022-08-19T18:43:47;24.23;;;11.68;;
29484;SDS011;16440;59.494;17.978;2022-08-19T18:46:35;26.77;;;11.77;;
29484;SDS011;16440;59.494;17.978;2022-08-19T18:49:24;18.77;;;10.73;;
29484;SDS011;16440;59.494;17.978;2022-08-19T18:52:01;23.55;;;11.25;;
29484;SDS011;16440;59.494;17.978;2022-08-19T18:54:33;20.98;;;11.32;;
29484;SDS011;16440;59.494;17.978;2022-08-19T18:57:07;19.23;;;11.15;;
29484;SDS011;16440;59.494;17.978;2022-08-19T18:59:45;20.35;;;11.00;;
29484;SDS011;16440;59.494;17.978;2022-08-19T19:02:27;19.48;;;10.95;;
29484;SDS011;16440;59.494;17.978;2022-08-19T19:05:22;25.27;;;11.40;;
29484;SDS011;16440;59.494;17.978;2022-08-19T19:07:51;18.80;;;10.80;;
29484;SDS011;16440;59.494;17.978;2022-08-19T19:10:25;19.15;;;11.43;;
29484;SDS011;16440;59.494;17.978;2022-08-19T19:12:59;21.85;;;11.75;;
29484;SDS011;16440;59.494;17.978;2022-08-19T19:18:05;22.70;;;11.35;;
29484;SDS011;16440;59.494;17.978;2022-08-19T19:20:43;24.55;;;12.07;;
29484;SDS011;16440;59.494;17.978;2022-08-19T19:23:15;22.62;;;11.55;;
29484;SDS011;16440;59.494;17.978;2022-08-19T19:25:45;17.55;;;11.35;;
29484;SDS011;16440;59.494;17.978;2022-08-19T19:28:23;21.40;;;11.50;;
29484;SDS011;16440;59.494;17.978;2022-08-19T19:31:00;22.80;;;12.18;;
29484;SDS011;16440;59.494;17.978;2022-08-19T19:36:14;20.92;;;11.02;;
29484;SDS011;16440;59.494;17.978;2022-08-19T19:38:47;22.50;;;11.88;;
29484;SDS011;16440;59.494;17.978;2022-08-19T19:44:13;21.10;;;11.75;;
29484;SDS011;16440;59.494;17.978;2022-08-19T19:46:45;21.20;;;11.35;;
29484;SDS011;16440;59.494;17.978;2022-08-19T19:49:17;20.40;;;11.68;;
29484;SDS011;16440;59.494;17.978;2022-08-19T19:51:59;20.00;;;12.80;;
29484;SDS011;16440;59.494;17.978;2022-08-19T19:54:28;21.30;;;12.27;;
29484;SDS011;16440;59.494;17.978;2022-08-19T19:56:59;26.62;;;12.25;;
29484;SDS011;16440;59.494;17.978;2022-08-19T19:59:43;23.33;;;12.32;;
29484;SDS011;16440;59.494;17.978;2022-08-19T20:02:25;21.65;;;12.02;;